createdAt,value
2022-08-07T00:00:53.226Z,69.30
2022-08-07T00:03:25.707Z,69.20
2022-08-07T00:05:54.278Z,69.20
2022-08-07T00:08:23.497Z,69.30
2022-08-07T00:10:57.478Z,69.30
2022-08-07T00:13:26.791Z,69.30
2022-08-07T00:15:55.309Z,69.30
2022-08-07T00:18:25.305Z,69.40
2022-08-07T00:20:54.766Z,69.50
2022-08-07T00:23:24.979Z,69.40
2022-08-07T00:26:02.819Z,69.50
2022-08-07T00:28:45.676Z,69.60
2022-08-07T00:31:16.436Z,69.70
2022-08-07T00:33:47.490Z,69.60
2022-08-07T00:36:16.855Z,69.60
2022-08-07T00:38:45.064Z,69.60
2022-08-07T00:41:14.617Z,69.70
2022-08-07T00:44:01.714Z,69.60
2022-08-07T00:46:33.011Z,69.70
2022-08-07T00:49:03.473Z,69.70
2022-08-07T00:51:57.696Z,69.80
2022-08-07T00:54:20.689Z,69.80
2022-08-07T00:56:52.372Z,69.80
2022-08-07T00:59:32.679Z,69.70
2022-08-07T01:02:08.879Z,69.80
2022-08-07T01:04:43.193Z,69.80
2022-08-07T01:07:13.196Z,69.90
2022-08-07T01:10:05.811Z,69.80
2022-08-07T01:12:31.970Z,69.80
2022-08-07T01:15:04.070Z,69.90
2022-08-07T01:17:34.067Z,70.00
2022-08-07T01:20:06.605Z,69.90
2022-08-07T01:22:46.574Z,69.90
2022-08-07T01:25:54.756Z,70.60
2022-08-07T01:28:15.628Z,69.90
2022-08-07T01:30:44.737Z,69.90
2022-08-07T01:33:13.445Z,69.90
2022-08-07T01:35:54.463Z,70.00
2022-08-07T01:38:32.360Z,70.10
2022-08-07T01:41:01.885Z,70.00
2022-08-07T01:43:38.321Z,70.00
2022-08-07T01:46:08.183Z,70.00
2022-08-07T01:48:40.967Z,70.10
2022-08-07T01:52:00.987Z,70.10
2022-08-07T01:54:11.693Z,70.10
2022-08-07T01:56:49.132Z,70.10
2022-08-07T01:59:23.781Z,70.10
2022-08-07T02:02:06.382Z,70.10
2022-08-07T02:04:52.538Z,70.00
2022-08-07T02:07:36.095Z,70.10
2022-08-07T02:10:24.653Z,70.20
2022-08-07T02:12:54.815Z,70.10
2022-08-07T02:15:25.440Z,70.10
2022-08-07T02:17:57.077Z,70.10
2022-08-07T02:20:25.662Z,70.10
2022-08-07T02:22:59.851Z,70.10
2022-08-07T02:26:10.464Z,70.10
2022-08-07T02:28:24.388Z,70.10
2022-08-07T02:30:53.833Z,70.00
2022-08-07T02:33:24.290Z,70.00
2022-08-07T02:36:30.917Z,70.00
2022-08-07T02:38:57.041Z,70.00
2022-08-07T02:41:33.356Z,70.10
2022-08-07T02:44:05.924Z,70.10
2022-08-07T02:46:37.016Z,70.10
2022-08-07T02:49:29.125Z,70.10
2022-08-07T02:52:05.950Z,70.10
2022-08-07T02:54:41.076Z,70.00
2022-08-07T02:57:15.109Z,70.00
2022-08-07T02:59:54.937Z,70.10
2022-08-07T03:02:29.591Z,70.00
2022-08-07T03:05:00.081Z,70.00
2022-08-07T03:07:43.095Z,70.00
2022-08-07T03:10:23.498Z,69.90
2022-08-07T03:12:53.990Z,70.00
2022-08-07T03:15:30.260Z,70.00
2022-08-07T03:18:17.649Z,70.10
2022-08-07T03:20:48.593Z,70.00
2022-08-07T03:23:22.370Z,70.10
2022-08-07T03:26:04.270Z,70.00
2022-08-07T03:28:37.303Z,70.00
2022-08-07T03:31:23.748Z,70.00
2022-08-07T03:33:54.983Z,70.00
2022-08-07T03:36:27.393Z,70.00
2022-08-07T03:38:59.092Z,70.00
2022-08-07T03:41:42.591Z,70.00
2022-08-07T03:44:17.207Z,70.00
2022-08-07T03:47:13.306Z,70.10
2022-08-07T03:49:51.964Z,70.00
2022-08-07T03:52:26.745Z,70.00
2022-08-07T03:54:59.044Z,69.90
2022-08-07T03:58:34.821Z,70.10
2022-08-07T04:00:29.127Z,70.10
2022-08-07T04:02:58.485Z,69.90
2022-08-07T04:05:39.750Z,70.00
2022-08-07T04:08:12.571Z,69.90
2022-08-07T04:10:54.635Z,70.60
2022-08-07T04:14:35.846Z,69.90
2022-08-07T04:16:31.397Z,69.90
2022-08-07T04:19:03.642Z,70.00
2022-08-07T04:21:33.389Z,70.10
2022-08-07T04:24:07.573Z,69.40
2022-08-07T04:26:36.301Z,68.40
2022-08-07T04:29:04.627Z,67.70
2022-08-07T04:31:39.236Z,67.10
2022-08-07T04:34:27.369Z,66.40
2022-08-07T04:37:01.889Z,65.80
2022-08-07T04:39:35.821Z,65.30
2022-08-07T04:42:04.457Z,65.00
2022-08-07T04:44:34.497Z,64.50
2022-08-07T04:47:10.624Z,64.10
2022-08-07T04:50:04.507Z,64.10
2022-08-07T04:52:51.214Z,64.60
2022-08-07T04:58:11.441Z,63.90
2022-08-07T04:58:34.951Z,63.80
2022-08-07T05:01:18.046Z,63.60
2022-08-07T05:04:07.477Z,63.30
2022-08-07T05:06:43.689Z,63.10
2022-08-07T05:09:43.113Z,62.90
2022-08-07T05:12:26.984Z,62.80
2022-08-07T05:15:04.173Z,62.80
2022-08-07T05:17:52.345Z,62.80
2022-08-07T05:20:27.950Z,62.70
2022-08-07T05:23:05.369Z,62.70
2022-08-07T05:26:13.787Z,62.60
2022-08-07T05:28:36.248Z,62.50
2022-08-07T05:31:09.246Z,62.60
2022-08-07T05:33:38.698Z,62.50
2022-08-07T05:36:12.312Z,62.50
2022-08-07T05:38:58.320Z,62.50
2022-08-07T05:42:00.519Z,62.40
2022-08-07T05:44:29.256Z,62.30
2022-08-07T05:47:00.359Z,62.20
2022-08-07T05:49:40.675Z,62.10
2022-08-07T05:52:11.501Z,62.00
2022-08-07T05:54:44.334Z,62.00
2022-08-07T05:57:23.144Z,62.70
2022-08-07T05:59:57.359Z,61.90
2022-08-07T06:02:29.454Z,61.90
2022-08-07T06:05:03.608Z,61.90
2022-08-07T06:08:30.061Z,61.90
2022-08-07T06:10:22.771Z,61.80
2022-08-07T06:12:51.234Z,61.80
2022-08-07T06:15:20.954Z,61.90
2022-08-07T06:17:53.918Z,61.90
2022-08-07T06:20:25.489Z,61.90
2022-08-07T06:23:46.664Z,62.00
2022-08-07T06:26:02.448Z,61.90
2022-08-07T06:28:30.611Z,61.90
2022-08-07T06:30:59.584Z,61.90
2022-08-07T06:33:29.732Z,61.90
2022-08-07T06:36:11.983Z,62.00
2022-08-07T06:38:59.569Z,62.00
2022-08-07T06:42:00.964Z,62.00
2022-08-07T06:44:26.217Z,62.10
2022-08-07T06:47:12.245Z,62.10
2022-08-07T06:49:52.377Z,61.90
2022-08-07T06:52:36.030Z,61.90
2022-08-07T06:55:32.642Z,62.00
2022-08-07T06:58:00.897Z,61.90
2022-08-07T07:00:31.975Z,62.00
2022-08-07T07:03:08.865Z,62.00
2022-08-07T07:06:02.706Z,62.00
2022-08-07T07:08:28.637Z,62.00
2022-08-07T07:10:58.992Z,62.10
2022-08-07T07:13:55.606Z,62.10
2022-08-07T07:16:27.214Z,62.10
2022-08-07T07:19:40.986Z,62.10
2022-08-07T07:22:05.392Z,62.10
2022-08-07T07:24:43.086Z,62.10
2022-08-07T07:27:21.529Z,62.10
2022-08-07T07:30:09.905Z,62.00
2022-08-07T07:32:43.153Z,62.10
2022-08-07T07:35:14.689Z,62.20
2022-08-07T07:37:49.927Z,62.10
2022-08-07T07:40:26.083Z,62.70
2022-08-07T07:42:58.747Z,62.20
2022-08-07T07:46:39.799Z,62.00
2022-08-07T07:48:34.970Z,62.00
2022-08-07T07:51:07.452Z,61.90
2022-08-07T07:53:41.826Z,61.90
2022-08-07T07:56:29.959Z,61.90
2022-08-07T07:59:01.606Z,61.80
2022-08-07T08:02:02.619Z,61.80
2022-08-07T08:04:25.779Z,61.70
2022-08-07T08:06:56.200Z,61.70
2022-08-07T08:09:29.510Z,61.70
2022-08-07T08:12:03.639Z,61.50
2022-08-07T08:14:36.011Z,62.40
2022-08-07T08:17:56.145Z,61.80
2022-08-07T08:20:19.461Z,61.60
2022-08-07T08:23:05.124Z,61.60
2022-08-07T08:25:56.490Z,61.20
2022-08-07T08:28:37.689Z,60.70
2022-08-07T08:31:16.379Z,60.40
2022-08-07T08:33:55.399Z,60.20
2022-08-07T08:36:29.564Z,60.00
2022-08-07T08:39:02.153Z,60.10
2022-08-07T08:41:56.968Z,60.10
2022-08-07T08:44:31.393Z,60.40
2022-08-07T08:47:10.066Z,60.10
2022-08-07T08:50:04.510Z,59.90
2022-08-07T08:52:40.969Z,59.90
2022-08-07T08:55:54.934Z,59.50
2022-08-07T08:58:28.289Z,59.30
2022-08-07T09:01:15.361Z,59.30
2022-08-07T09:03:59.585Z,59.00
2022-08-07T09:06:53.382Z,59.00
2022-08-07T09:09:48.270Z,58.90
2022-08-07T09:12:38.944Z,58.80
2022-08-07T09:16:25.689Z,58.60
2022-08-07T09:18:27.920Z,58.70
2022-08-07T09:21:34.197Z,58.70
2022-08-07T09:24:30.993Z,58.50
2022-08-07T09:27:24.186Z,58.50
2022-08-07T09:30:08.257Z,58.40
2022-08-07T09:32:58.595Z,58.20
2022-08-07T09:36:04.629Z,58.40
2022-08-07T09:38:42.823Z,58.40
2022-08-07T09:41:36.215Z,58.60
2022-08-07T09:44:32.991Z,58.60
2022-08-07T09:47:51.427Z,58.40
2022-08-07T09:50:19.200Z,58.40
2022-08-07T09:52:52.144Z,58.50
2022-08-07T09:56:02.390Z,59.30
2022-08-07T09:58:42.999Z,59.40
2022-08-07T10:01:53.209Z,59.30
2022-08-07T10:04:58.852Z,59.30
2022-08-07T10:07:52.650Z,59.10
2022-08-07T10:11:07.785Z,59.00
2022-08-07T10:14:01.337Z,59.00
2022-08-07T10:17:00.971Z,59.00
2022-08-07T10:19:50.123Z,58.70
2022-08-07T10:22:46.739Z,58.80
2022-08-07T10:25:42.797Z,58.70
2022-08-07T10:28:24.641Z,58.10
2022-08-07T10:31:05.863Z,58.20
2022-08-07T10:34:05.951Z,58.50
2022-08-07T10:36:56.704Z,58.50
2022-08-07T10:39:41.254Z,59.00
2022-08-07T10:42:36.767Z,58.00
2022-08-07T10:45:16.684Z,58.00
2022-08-07T10:48:03.088Z,58.90
2022-08-07T10:50:42.607Z,58.80
2022-08-07T10:53:26.420Z,58.00
2022-08-07T10:56:04.950Z,55.50
2022-08-07T10:58:59.781Z,54.90
2022-08-07T11:01:51.544Z,53.70
2022-08-07T11:04:45.612Z,54.90
2022-08-07T11:07:58.698Z,55.30
2022-08-07T11:10:20.630Z,54.60
2022-08-07T11:13:02.324Z,54.60
2022-08-07T11:15:36.438Z,53.50
2022-08-07T11:18:12.542Z,54.20
2022-08-07T11:20:47.498Z,54.30
2022-08-07T11:23:30.342Z,54.30
2022-08-07T11:26:13.142Z,54.60
2022-08-07T11:28:53.336Z,53.90
2022-08-07T11:31:35.159Z,53.70
2022-08-07T11:34:17.160Z,54.20
2022-08-07T11:37:00.824Z,53.50
2022-08-07T11:40:00.450Z,53.40
2022-08-07T11:42:41.952Z,53.20
2022-08-07T11:45:20.600Z,52.50
2022-08-07T11:48:29.394Z,52.60
2022-08-07T11:51:40.037Z,53.10
2022-08-07T11:54:25.228Z,52.80
2022-08-07T11:57:04.346Z,52.80
2022-08-07T12:00:11.140Z,52.80
2022-08-07T12:03:45.199Z,53.30
2022-08-07T12:06:36.944Z,53.20
2022-08-07T12:09:16.526Z,52.00
2022-08-07T12:12:08.849Z,52.50
2022-08-07T12:14:55.670Z,52.60
2022-08-07T12:17:35.666Z,52.40
2022-08-07T12:20:18.533Z,52.40
2022-08-07T12:23:37.405Z,52.40
2022-08-07T12:26:29.777Z,52.40
2022-08-07T12:29:08.293Z,52.80
2022-08-07T12:32:01.605Z,52.70
2022-08-07T12:34:33.131Z,52.80
2022-08-07T12:37:08.452Z,51.60
2022-08-07T12:39:51.201Z,52.20
2022-08-07T12:42:27.519Z,52.00
2022-08-07T12:44:59.814Z,51.80
2022-08-07T12:47:41.659Z,52.00
2022-08-07T12:50:34.141Z,52.10
2022-08-07T12:53:18.601Z,52.20
2022-08-07T12:56:03.491Z,52.70
2022-08-07T12:58:39.654Z,52.80
2022-08-07T13:01:09.648Z,52.80
2022-08-07T13:04:05.094Z,53.20
2022-08-07T13:06:54.183Z,52.30
2022-08-07T13:10:21.655Z,52.20
2022-08-07T13:12:54.889Z,52.10
2022-08-07T13:15:34.316Z,52.60
2022-08-07T13:18:26.168Z,52.30
2022-08-07T13:21:00.783Z,52.90
2022-08-07T13:24:00.737Z,52.80
2022-08-07T13:26:31.052Z,52.60
2022-08-07T13:29:08.913Z,52.60
2022-08-07T13:31:55.006Z,53.10
2022-08-07T13:34:36.564Z,53.00
2022-08-07T13:37:10.722Z,53.90
2022-08-07T13:40:35.265Z,53.80
2022-08-07T13:42:52.168Z,53.40
2022-08-07T13:46:12.043Z,53.50
2022-08-07T13:48:27.932Z,53.40
2022-08-07T13:51:02.697Z,52.70
2022-08-07T13:53:59.357Z,52.90
2022-08-07T13:56:36.037Z,53.10
2022-08-07T13:59:12.736Z,53.20
2022-08-07T14:01:59.284Z,53.40
2022-08-07T14:04:38.076Z,53.40
2022-08-07T14:07:19.427Z,53.50
2022-08-07T14:10:02.927Z,53.40
2022-08-07T14:12:49.521Z,53.60
2022-08-07T14:15:32.065Z,53.40
2022-08-07T14:18:15.963Z,53.30
2022-08-07T14:21:08.068Z,53.40
2022-08-07T14:24:00.566Z,54.40
2022-08-07T14:26:31.827Z,53.40
2022-08-07T14:30:03.031Z,53.50
2022-08-07T14:31:56.480Z,53.80
2022-08-07T14:34:47.172Z,54.00
2022-08-07T14:37:18.061Z,54.20
2022-08-07T14:40:17.169Z,54.20
2022-08-07T14:43:00.897Z,54.40
2022-08-07T14:48:19.616Z,54.10
2022-08-07T14:51:16.251Z,53.80
2022-08-07T14:54:08.590Z,54.00
2022-08-07T14:56:40.057Z,53.50
2022-08-07T14:59:13.861Z,53.30
2022-08-07T15:02:09.235Z,52.90
2022-08-07T15:04:58.232Z,53.30
2022-08-07T15:07:51.082Z,53.70
2022-08-07T15:10:25.909Z,53.60
2022-08-07T15:12:58.023Z,53.80
2022-08-07T15:18:34.833Z,53.80
2022-08-07T15:26:54.930Z,54.00
2022-08-07T15:30:06.524Z,54.10
2022-08-07T15:32:15.020Z,54.10
2022-08-07T15:35:06.638Z,54.20
2022-08-07T15:38:17.470Z,54.60
2022-08-07T15:40:33.731Z,54.90
2022-08-07T15:43:53.242Z,55.30
2022-08-07T15:46:31.784Z,55.30
2022-08-07T15:49:14.287Z,55.40
2022-08-07T15:54:34.181Z,55.50
2022-08-07T15:57:06.594Z,55.50
2022-08-07T15:59:38.916Z,54.80
2022-08-07T16:02:15.278Z,55.20
2022-08-07T16:04:44.699Z,55.40
2022-08-07T16:08:31.347Z,55.60
2022-08-07T16:10:15.037Z,55.70
2022-08-07T16:13:05.442Z,56.00
2022-08-07T16:15:57.575Z,56.10
2022-08-07T16:18:50.021Z,56.30
2022-08-07T16:22:01.668Z,55.80
2022-08-07T16:24:34.754Z,56.50
2022-08-07T16:27:18.141Z,55.60
2022-08-07T16:30:29.409Z,55.60
2022-08-07T16:34:02.959Z,55.60
2022-08-07T16:36:02.919Z,55.70
2022-08-07T16:39:01.315Z,55.70
2022-08-07T16:42:03.646Z,55.70
2022-08-07T16:45:31.041Z,55.60
2022-08-07T16:48:16.065Z,55.20
2022-08-07T16:51:52.078Z,55.10
2022-08-07T16:54:22.175Z,54.60
2022-08-07T16:57:15.814Z,55.30
2022-08-07T17:00:12.075Z,55.30
2022-08-07T17:03:17.323Z,55.60
2022-08-07T17:06:28.310Z,55.00
2022-08-07T17:09:10.747Z,54.80
2022-08-07T17:12:03.912Z,54.90
2022-08-07T17:14:42.979Z,55.40
2022-08-07T17:17:44.326Z,55.40
2022-08-07T17:20:20.898Z,55.60
2022-08-07T17:22:58.466Z,56.40
2022-08-07T17:25:51.816Z,55.90
2022-08-07T17:28:31.196Z,55.70
2022-08-07T17:31:16.033Z,55.30
2022-08-07T17:34:17.951Z,55.50
2022-08-07T17:36:57.463Z,55.80
2022-08-07T17:39:58.760Z,56.40
2022-08-07T17:42:59.916Z,56.40
2022-08-07T17:45:28.911Z,56.50
2022-08-07T17:48:04.555Z,56.80
2022-08-07T17:50:47.004Z,56.90
2022-08-07T17:53:59.769Z,57.20
2022-08-07T17:56:28.585Z,57.30
2022-08-07T17:59:10.677Z,57.60
2022-08-07T18:01:56.805Z,57.80
2022-08-07T18:04:34.816Z,58.00
2022-08-07T18:07:20.860Z,58.10
2022-08-07T18:10:05.896Z,58.50
2022-08-07T18:12:49.610Z,58.60
2022-08-07T18:15:24.371Z,58.80
2022-08-07T18:18:45.046Z,59.00
2022-08-07T18:21:38.205Z,59.30
2022-08-07T18:24:07.274Z,59.60
2022-08-07T18:26:55.844Z,59.70
2022-08-07T18:30:07.622Z,59.60
2022-08-07T18:32:39.269Z,59.80
2022-08-07T18:35:21.534Z,60.20
2022-08-07T18:38:57.910Z,60.00
2022-08-07T18:41:20.735Z,60.20
2022-08-07T18:43:58.883Z,60.20
2022-08-07T18:46:33.489Z,60.20
2022-08-07T18:50:33.054Z,60.50
2022-08-07T18:52:37.484Z,60.60
2022-08-07T18:55:40.875Z,61.30
2022-08-07T18:58:27.185Z,61.50
2022-08-07T19:01:06.193Z,62.00
2022-08-07T19:03:45.618Z,61.90
2022-08-07T19:06:21.417Z,61.80
2022-08-07T19:09:09.424Z,61.80
2022-08-07T19:12:17.858Z,61.90
2022-08-07T19:15:02.356Z,62.10
2022-08-07T19:18:11.347Z,62.10
2022-08-07T19:21:09.242Z,62.70
2022-08-07T19:23:58.558Z,63.00
2022-08-07T19:27:16.658Z,63.10
2022-08-07T19:31:03.259Z,63.20
2022-08-07T19:32:42.413Z,63.30
2022-08-07T19:35:13.515Z,63.70
2022-08-07T19:37:57.287Z,64.10
2022-08-07T19:40:31.904Z,65.00
2022-08-07T19:43:02.693Z,64.70
2022-08-07T19:46:05.820Z,64.90
2022-08-07T19:48:42.260Z,64.60
2022-08-07T19:51:20.522Z,65.10
2022-08-07T19:54:33.748Z,65.10
2022-08-07T19:57:51.553Z,65.90
2022-08-07T19:59:46.907Z,65.80
2022-08-07T20:02:21.027Z,65.80
2022-08-07T20:04:53.973Z,66.00
2022-08-07T20:07:45.870Z,66.00
2022-08-07T20:10:36.613Z,66.00
2022-08-07T20:13:15.756Z,65.90
2022-08-07T20:15:51.542Z,65.90
2022-08-07T20:18:33.365Z,66.00
2022-08-07T20:21:20.874Z,66.00
2022-08-07T20:23:54.287Z,65.80
2022-08-07T20:26:32.629Z,66.10
2022-08-07T20:29:17.083Z,66.30
2022-08-07T20:32:00.642Z,66.30
2022-08-07T20:34:49.314Z,66.70
2022-08-07T20:37:29.438Z,66.80
2022-08-07T20:40:02.412Z,67.20
2022-08-07T20:42:35.209Z,67.70
2022-08-07T20:45:33.678Z,67.10
2022-08-07T20:47:58.621Z,67.60
2022-08-07T20:50:30.347Z,67.40
2022-08-07T20:53:00.431Z,67.90
2022-08-07T20:55:31.979Z,67.90
2022-08-07T20:58:11.758Z,68.80
2022-08-07T21:00:45.963Z,68.30
2022-08-07T21:03:18.932Z,68.30
2022-08-07T21:05:56.462Z,68.00
2022-08-07T21:08:36.869Z,67.60
2022-08-07T21:11:10.872Z,67.90
2022-08-07T21:13:56.990Z,67.90
2022-08-07T21:16:37.739Z,67.90
2022-08-07T21:19:32.378Z,69.10
2022-08-07T21:22:16.563Z,68.60
2022-08-07T21:25:12.233Z,69.80
2022-08-07T21:27:55.672Z,71.80
2022-08-07T21:30:38.757Z,72.40
2022-08-07T21:33:15.817Z,73.50
2022-08-07T21:36:06.059Z,72.90
2022-08-07T21:38:55.517Z,72.70
2022-08-07T21:41:37.730Z,73.30
2022-08-07T21:44:14.689Z,73.90
2022-08-07T21:46:59.530Z,74.70
2022-08-07T21:49:40.625Z,85.10
2022-08-07T21:52:33.367Z,84.40
2022-08-07T21:55:10.887Z,86.50
2022-08-07T21:57:54.138Z,94.80
2022-08-07T22:00:25.789Z,97.90
2022-08-07T22:03:00.416Z,97.80
2022-08-07T22:05:44.304Z,94.70
2022-08-07T22:08:18.857Z,93.50
2022-08-07T22:10:51.745Z,94.30
2022-08-07T22:13:24.698Z,88.40
2022-08-07T22:16:38.834Z,85.60
2022-08-07T22:19:09.491Z,81.90
2022-08-07T22:22:02.652Z,79.40
2022-08-07T22:24:37.101Z,78.10
2022-08-07T22:27:15.987Z,77.10
2022-08-07T22:29:54.193Z,76.30
2022-08-07T22:32:30.214Z,75.50
2022-08-07T22:35:02.863Z,73.90
2022-08-07T22:38:01.962Z,72.70
2022-08-07T22:40:40.900Z,70.80
2022-08-07T22:43:11.309Z,70.80
2022-08-07T22:46:21.902Z,71.80
2022-08-07T22:49:07.778Z,73.20
2022-08-07T22:51:51.978Z,73.40
2022-08-07T22:54:49.053Z,73.30
2022-08-07T22:57:41.121Z,73.20
2022-08-07T23:00:16.213Z,73.30
2022-08-07T23:03:02.082Z,73.30
2022-08-07T23:06:06.807Z,73.60
2022-08-07T23:08:51.587Z,73.40
2022-08-07T23:11:29.645Z,73.40
2022-08-07T23:14:25.328Z,73.30
2022-08-07T23:17:15.513Z,73.20
2022-08-07T23:20:09.745Z,73.10
2022-08-07T23:22:56.313Z,72.60
2022-08-07T23:25:34.182Z,72.40
2022-08-07T23:28:28.446Z,72.10
2022-08-07T23:31:42.728Z,71.80
2022-08-07T23:34:37.344Z,71.30
2022-08-07T23:37:33.224Z,71.20
2022-08-07T23:40:13.623Z,70.80
2022-08-07T23:45:33.438Z,70.40
2022-08-07T23:48:40.901Z,70.40
2022-08-07T23:53:08.780Z,70.10
2022-08-07T23:54:20.046Z,69.90
2022-08-07T23:57:13.466Z,69.60
